createdAt,value
2022-08-22T00:01:21.247Z,18.55
2022-08-22T00:03:10.196Z,18.92
2022-08-22T00:04:53.414Z,18.49
2022-08-22T00:08:20.189Z,18.43
2022-08-22T00:11:47.430Z,18.46
2022-08-22T00:15:01.591Z,18.35
2022-08-22T00:18:22.841Z,18.41
2022-08-22T00:21:32.028Z,18.50
2022-08-22T00:24:49.078Z,18.61
2022-08-22T00:27:56.840Z,18.45
2022-08-22T00:31:18.312Z,18.47
2022-08-22T00:34:22.701Z,18.49
2022-08-22T00:37:44.600Z,18.45
2022-08-22T00:41:02.469Z,18.50
2022-08-22T00:44:07.700Z,18.38
2022-08-22T00:47:29.393Z,18.44
2022-08-22T00:50:56.907Z,18.42
2022-08-22T00:54:28.859Z,18.41
2022-08-22T00:57:31.251Z,18.42
2022-08-22T01:00:42.515Z,18.45
2022-08-22T01:03:53.125Z,18.45
2022-08-22T01:07:38.316Z,18.37
2022-08-22T01:10:56.101Z,18.36
2022-08-22T01:14:35.057Z,18.26
2022-08-22T01:18:05.353Z,18.32
2022-08-22T01:21:43.029Z,18.35
2022-08-22T01:25:18.304Z,18.29
2022-08-22T01:29:10.438Z,18.31
2022-08-22T01:32:22.203Z,18.45
2022-08-22T01:35:50.417Z,18.47
2022-08-22T01:39:17.922Z,18.43
2022-08-22T01:42:49.311Z,18.42
2022-08-22T01:46:20.631Z,18.40
2022-08-22T01:49:29.612Z,18.22
2022-08-22T01:53:00.958Z,18.18
2022-08-22T01:56:12.186Z,18.26
2022-08-22T01:59:28.907Z,18.35
2022-08-22T02:03:03.384Z,18.44
2022-08-22T02:06:16.035Z,18.30
2022-08-22T02:09:45.120Z,18.41
2022-08-22T02:13:09.675Z,18.28
2022-08-22T02:16:20.600Z,18.28
2022-08-22T02:19:29.430Z,18.37
2022-08-22T02:23:04.268Z,18.24
2022-08-22T02:26:16.904Z,18.27
2022-08-22T02:29:41.547Z,18.10
2022-08-22T02:32:53.611Z,18.16
2022-08-22T02:36:02.417Z,18.23
2022-08-22T02:39:16.713Z,18.37
2022-08-22T02:42:34.380Z,18.35
2022-08-22T02:45:40.166Z,18.33
2022-08-22T02:48:50.473Z,18.26
2022-08-22T02:52:18.165Z,18.30
2022-08-22T02:55:42.352Z,18.33
2022-08-22T02:58:59.277Z,18.28
2022-08-22T03:02:27.723Z,18.26
2022-08-22T03:05:35.971Z,18.32
2022-08-22T03:08:42.799Z,18.28
2022-08-22T03:12:04.371Z,18.26
2022-08-22T03:15:15.318Z,18.25
2022-08-22T03:18:27.705Z,18.25
2022-08-22T03:21:40.966Z,18.25
2022-08-22T03:25:01.716Z,18.28
2022-08-22T03:28:09.083Z,18.32
2022-08-22T03:31:24.382Z,18.30
2022-08-22T03:34:27.099Z,18.21
2022-08-22T03:37:35.737Z,18.25
2022-08-22T03:40:47.366Z,18.31
2022-08-22T03:44:37.951Z,18.36
2022-08-22T03:47:52.225Z,18.48
2022-08-22T03:51:11.466Z,18.48
2022-08-22T03:54:35.299Z,18.48
2022-08-22T03:57:57.921Z,18.48
2022-08-22T04:01:51.058Z,18.47
2022-08-22T04:05:09.727Z,18.47
2022-08-22T04:08:34.743Z,18.58
2022-08-22T04:11:56.216Z,18.64
2022-08-22T04:15:15.321Z,18.70
2022-08-22T04:18:26.937Z,18.64
2022-08-22T04:21:53.146Z,18.73
2022-08-22T04:25:23.186Z,18.79
2022-08-22T04:28:27.938Z,18.75
2022-08-22T04:31:36.524Z,18.87
2022-08-22T04:34:42.562Z,18.76
2022-08-22T04:38:00.837Z,18.79
2022-08-22T04:41:15.501Z,18.90
2022-08-22T04:44:38.451Z,19.02
2022-08-22T04:47:47.246Z,19.08
2022-08-22T04:51:06.142Z,19.15
2022-08-22T04:54:10.877Z,19.31
2022-08-22T04:57:45.640Z,19.09
2022-08-22T05:01:06.466Z,19.26
2022-08-22T05:04:13.450Z,19.44
2022-08-22T05:07:28.629Z,19.52
2022-08-22T05:10:41.398Z,19.57
2022-08-22T05:14:07.989Z,19.60
2022-08-22T05:17:16.916Z,19.61
2022-08-22T05:20:23.232Z,19.55
2022-08-22T05:23:36.177Z,19.62
2022-08-22T05:26:46.613Z,19.82
2022-08-22T05:29:53.751Z,20.11
2022-08-22T05:33:27.841Z,20.42
2022-08-22T05:36:58.176Z,20.94
2022-08-22T05:40:01.174Z,21.21
2022-08-22T05:43:06.555Z,21.28
2022-08-22T05:46:37.231Z,21.32
2022-08-22T05:49:50.883Z,21.46
2022-08-22T05:53:02.983Z,21.50
2022-08-22T05:56:09.509Z,21.47
2022-08-22T05:59:23.125Z,21.57
2022-08-22T06:02:45.331Z,21.70
2022-08-22T06:05:52.110Z,21.82
2022-08-22T06:09:03.333Z,22.05
2022-08-22T06:12:29.368Z,21.94
2022-08-22T06:15:47.797Z,22.06
2022-08-22T06:18:53.006Z,22.01
2022-08-22T06:21:57.563Z,22.21
2022-08-22T06:25:12.837Z,22.42
2022-08-22T06:28:26.659Z,22.48
2022-08-22T06:31:34.341Z,22.70
2022-08-22T06:34:40.884Z,22.90
2022-08-22T06:37:46.968Z,23.05
2022-08-22T06:40:54.273Z,23.11
2022-08-22T06:43:58.781Z,23.13
2022-08-22T06:47:05.353Z,23.03
2022-08-22T06:50:39.378Z,23.09
2022-08-22T06:53:51.218Z,23.31
2022-08-22T06:56:55.462Z,23.35
2022-08-22T07:00:03.000Z,23.64
2022-08-22T07:03:35.111Z,24.09
2022-08-22T07:06:41.538Z,25.38
2022-08-22T07:09:48.570Z,27.40
2022-08-22T07:12:54.138Z,27.19
2022-08-22T07:16:01.373Z,26.86
2022-08-22T07:19:03.708Z,26.77
2022-08-22T07:22:22.080Z,26.37
2022-08-22T07:25:25.032Z,25.85
2022-08-22T07:28:51.143Z,25.58
2022-08-22T07:32:14.636Z,24.93
2022-08-22T07:35:27.303Z,24.44
2022-08-22T07:38:37.525Z,24.86
2022-08-22T07:42:10.633Z,25.06
2022-08-22T07:45:20.671Z,24.62
2022-08-22T07:48:33.445Z,24.50
2022-08-22T07:51:52.925Z,24.74
2022-08-22T07:55:03.637Z,24.82
2022-08-22T07:58:15.749Z,24.59
2022-08-22T08:01:22.084Z,24.49
2022-08-22T08:04:33.454Z,24.31
2022-08-22T08:07:43.508Z,24.51
2022-08-22T08:10:48.998Z,24.29
2022-08-22T08:13:59.202Z,24.23
2022-08-22T08:17:07.189Z,23.73
2022-08-22T08:20:13.147Z,23.70
2022-08-22T08:23:23.832Z,23.80
2022-08-22T08:26:39.830Z,23.85
2022-08-22T08:29:51.209Z,24.10
2022-08-22T08:33:25.068Z,24.53
2022-08-22T08:36:35.997Z,25.28
2022-08-22T08:39:49.784Z,26.09
2022-08-22T08:43:18.647Z,26.71
2022-08-22T08:46:58.603Z,26.84
2022-08-22T08:50:22.564Z,26.59
2022-08-22T08:53:56.893Z,26.04
2022-08-22T08:57:08.864Z,25.59
2022-08-22T09:00:43.123Z,25.35
2022-08-22T09:04:22.333Z,25.92
2022-08-22T09:07:53.371Z,26.03
2022-08-22T09:11:50.516Z,25.57
2022-08-22T09:15:26.386Z,26.05
2022-08-22T09:18:53.791Z,26.40
2022-08-22T09:22:15.074Z,26.32
2022-08-22T09:29:06.075Z,26.05
2022-08-22T09:32:44.999Z,26.08
2022-08-22T09:36:05.547Z,26.04
2022-08-22T09:39:20.778Z,25.87
2022-08-22T09:40:16.318Z,25.92
2022-08-22T09:42:53.131Z,25.78
2022-08-22T09:46:13.262Z,25.97
2022-08-22T09:49:37.836Z,26.05
2022-08-22T09:53:02.695Z,26.10
2022-08-22T09:56:11.542Z,25.63
2022-08-22T09:59:31.147Z,25.25
2022-08-22T10:02:44.900Z,25.21
2022-08-22T10:06:00.602Z,24.89
2022-08-22T10:09:13.111Z,24.70
2022-08-22T10:12:24.949Z,24.87
2022-08-22T10:15:39.889Z,25.06
2022-08-22T10:19:07.428Z,25.02
2022-08-22T10:22:39.939Z,25.39
2022-08-22T10:25:49.960Z,25.71
2022-08-22T10:29:03.711Z,25.87
2022-08-22T10:32:20.259Z,26.23
2022-08-22T10:35:39.542Z,26.43
2022-08-22T10:38:53.296Z,26.64
2022-08-22T10:42:23.284Z,26.83
2022-08-22T10:45:37.279Z,26.87
2022-08-22T10:48:47.977Z,27.26
2022-08-22T10:52:15.515Z,27.70
2022-08-22T10:55:26.969Z,27.64
2022-08-22T10:58:36.926Z,27.75
2022-08-22T11:01:51.214Z,27.56
2022-08-22T11:04:56.811Z,27.48
2022-08-22T11:08:04.361Z,27.61
2022-08-22T11:11:57.109Z,27.84
2022-08-22T11:15:11.863Z,28.11
2022-08-22T11:18:23.322Z,27.89
2022-08-22T11:21:41.861Z,27.58
2022-08-22T11:25:04.737Z,27.18
2022-08-22T11:28:19.730Z,27.02
2022-08-22T11:31:37.270Z,27.03
2022-08-22T11:35:00.524Z,27.23
2022-08-22T11:38:16.103Z,27.43
2022-08-22T11:41:28.903Z,27.80
2022-08-22T11:44:50.316Z,28.04
2022-08-22T11:48:02.555Z,27.88
2022-08-22T11:51:38.827Z,27.98
2022-08-22T11:55:07.077Z,27.82
2022-08-22T11:58:30.332Z,27.76
2022-08-22T12:01:54.614Z,27.77
2022-08-22T12:05:10.783Z,28.15
2022-08-22T12:08:29.203Z,28.30
2022-08-22T12:11:43.715Z,28.56
2022-08-22T12:15:01.919Z,28.64
2022-08-22T12:18:21.155Z,28.39
2022-08-22T12:21:36.724Z,28.06
2022-08-22T12:25:07.807Z,27.83
2022-08-22T12:28:38.825Z,27.94
2022-08-22T12:31:47.115Z,27.39
2022-08-22T12:35:00.818Z,27.12
2022-08-22T12:38:32.745Z,27.07
2022-08-22T12:42:23.671Z,27.09
2022-08-22T12:45:32.033Z,26.76
2022-08-22T12:48:45.157Z,26.78
2022-08-22T12:52:20.011Z,26.72
2022-08-22T12:55:32.498Z,26.99
2022-08-22T12:58:59.867Z,27.00
2022-08-22T13:02:26.320Z,26.89
2022-08-22T13:05:31.118Z,26.47
2022-08-22T13:08:45.601Z,26.58
2022-08-22T13:11:54.425Z,26.23
2022-08-22T13:15:24.430Z,26.03
2022-08-22T13:18:35.789Z,25.87
2022-08-22T13:21:44.247Z,26.01
2022-08-22T13:24:51.745Z,26.28
2022-08-22T13:28:01.241Z,26.18
2022-08-22T13:31:05.447Z,26.30
2022-08-22T13:34:40.654Z,26.41
2022-08-22T13:37:50.784Z,26.39
2022-08-22T13:40:55.649Z,26.54
2022-08-22T13:44:06.997Z,26.67
2022-08-22T13:47:14.911Z,26.71
2022-08-22T13:50:24.332Z,26.93
2022-08-22T13:53:35.512Z,26.85
2022-08-22T13:57:02.988Z,26.45
2022-08-22T14:00:48.767Z,26.57
2022-08-22T14:04:21.876Z,26.43
2022-08-22T14:07:36.108Z,26.44
2022-08-22T14:10:45.476Z,26.50
2022-08-22T14:13:55.612Z,26.44
2022-08-22T14:16:59.474Z,26.22
2022-08-22T14:20:33.647Z,26.31
2022-08-22T14:23:37.131Z,26.09
2022-08-22T14:26:49.263Z,26.21
2022-08-22T14:29:57.923Z,25.79
2022-08-22T14:33:20.708Z,25.76
2022-08-22T14:36:40.771Z,25.72
2022-08-22T14:39:52.393Z,25.68
2022-08-22T14:43:40.576Z,25.63
2022-08-22T14:46:51.218Z,25.50
2022-08-22T14:49:57.628Z,25.28
2022-08-22T14:53:10.596Z,25.07
2022-08-22T14:56:28.032Z,24.70
2022-08-22T14:59:43.631Z,24.72
2022-08-22T15:02:46.579Z,24.44
2022-08-22T15:05:59.253Z,24.37
2022-08-22T15:09:07.749Z,24.39
2022-08-22T15:12:33.507Z,24.47
2022-08-22T15:15:41.244Z,24.56
2022-08-22T15:18:55.793Z,24.56
2022-08-22T15:22:20.195Z,24.67
2022-08-22T15:25:31.357Z,24.49
2022-08-22T15:28:52.979Z,24.44
2022-08-22T15:32:01.260Z,24.45
2022-08-22T15:35:11.611Z,24.33
2022-08-22T15:38:37.060Z,24.33
2022-08-22T15:41:49.448Z,24.12
2022-08-22T15:44:54.663Z,24.05
2022-08-22T15:48:01.533Z,23.91
2022-08-22T15:51:11.267Z,23.92
2022-08-22T15:54:24.692Z,23.79
2022-08-22T15:57:42.147Z,23.55
2022-08-22T16:01:02.692Z,23.54
2022-08-22T16:04:12.695Z,23.44
2022-08-22T16:07:40.417Z,23.37
2022-08-22T16:10:49.702Z,23.34
2022-08-22T16:14:16.916Z,23.42
2022-08-22T16:17:28.608Z,23.35
2022-08-22T16:20:36.605Z,23.40
2022-08-22T16:23:51.306Z,23.35
2022-08-22T16:26:53.896Z,23.23
2022-08-22T16:30:05.359Z,23.11
2022-08-22T16:33:17.661Z,23.06
2022-08-22T16:36:21.138Z,23.08
2022-08-22T16:39:23.638Z,22.97
2022-08-22T16:42:34.730Z,22.83
2022-08-22T16:45:41.029Z,22.79
2022-08-22T16:48:45.450Z,22.69
2022-08-22T16:52:25.818Z,22.53
2022-08-22T16:55:30.909Z,22.34
2022-08-22T16:58:59.215Z,22.19
2022-08-22T17:02:15.235Z,22.15
2022-08-22T17:05:39.118Z,22.03
2022-08-22T17:08:50.560Z,21.94
2022-08-22T17:12:05.522Z,21.77
2022-08-22T17:15:23.157Z,21.82
2022-08-22T17:18:30.962Z,21.76
2022-08-22T17:21:39.070Z,21.75
2022-08-22T17:25:05.699Z,21.73
2022-08-22T17:28:23.153Z,21.65
2022-08-22T17:32:00.453Z,21.66
2022-08-22T17:35:17.804Z,21.68
2022-08-22T17:38:42.694Z,21.69
2022-08-22T17:42:23.400Z,21.66
2022-08-22T17:46:13.554Z,21.56
2022-08-22T17:49:34.195Z,21.50
2022-08-22T17:52:45.524Z,21.43
2022-08-22T17:56:06.222Z,21.38
2022-08-22T17:59:28.800Z,21.19
2022-08-22T18:02:39.533Z,21.13
2022-08-22T18:05:51.611Z,21.01
2022-08-22T18:09:17.041Z,21.00
2022-08-22T18:12:33.667Z,20.94
2022-08-22T18:15:47.148Z,20.88
2022-08-22T18:18:57.488Z,20.89
2022-08-22T18:22:10.887Z,20.93
2022-08-22T18:25:19.430Z,20.92
2022-08-22T18:28:29.323Z,20.94
2022-08-22T18:31:38.860Z,20.87
2022-08-22T18:35:07.727Z,20.79
2022-08-22T18:38:25.181Z,20.87
2022-08-22T18:41:42.911Z,20.80
2022-08-22T18:44:45.633Z,20.76
2022-08-22T18:47:56.565Z,20.66
2022-08-22T18:51:24.667Z,20.72
2022-08-22T18:54:36.614Z,20.60
2022-08-22T18:58:07.108Z,20.63
2022-08-22T19:01:42.208Z,20.69
2022-08-22T19:05:13.513Z,20.79
2022-08-22T19:08:35.779Z,20.80
2022-08-22T19:12:01.782Z,20.89
2022-08-22T19:15:09.894Z,20.83
2022-08-22T19:18:31.552Z,20.75
2022-08-22T19:21:54.822Z,20.76
2022-08-22T19:25:15.551Z,20.75
2022-08-22T19:28:17.612Z,20.58
2022-08-22T19:31:25.263Z,20.58
2022-08-22T19:34:30.327Z,20.54
2022-08-22T19:37:54.323Z,20.51
2022-08-22T19:40:58.436Z,20.49
2022-08-22T19:44:01.138Z,20.52
2022-08-22T19:47:07.256Z,20.43
2022-08-22T19:50:15.614Z,20.49
2022-08-22T19:53:55.869Z,20.52
2022-08-22T19:57:10.191Z,20.49
2022-08-22T20:00:53.687Z,20.56
2022-08-22T20:04:24.718Z,20.65
2022-08-22T20:07:39.135Z,20.66
2022-08-22T20:10:58.584Z,20.62
2022-08-22T20:14:25.036Z,20.43
2022-08-22T20:17:42.739Z,20.41
2022-08-22T20:21:00.273Z,20.48
2022-08-22T20:24:07.103Z,20.47
2022-08-22T20:27:17.159Z,20.57
2022-08-22T20:30:27.726Z,20.49
2022-08-22T20:33:35.079Z,20.52
2022-08-22T20:36:44.149Z,20.45
2022-08-22T20:39:59.064Z,20.49
2022-08-22T20:43:10.716Z,20.44
2022-08-22T20:46:32.262Z,20.47
2022-08-22T20:49:49.279Z,20.52
2022-08-22T20:53:11.496Z,20.51
2022-08-22T20:56:14.308Z,20.62
2022-08-22T20:59:35.781Z,20.58
2022-08-22T21:02:43.654Z,20.64
2022-08-22T21:05:46.236Z,20.56
2022-08-22T21:09:12.133Z,20.52
2022-08-22T21:12:14.872Z,20.54
2022-08-22T21:15:30.082Z,20.49
2022-08-22T21:18:40.471Z,20.42
2022-08-22T21:21:42.893Z,20.32
2022-08-22T21:24:45.663Z,20.25
2022-08-22T21:27:49.742Z,20.10
2022-08-22T21:30:51.907Z,20.23
2022-08-22T21:33:56.168Z,20.25
2022-08-22T21:37:12.545Z,20.29
2022-08-22T21:40:44.570Z,20.31
2022-08-22T21:43:48.293Z,20.26
2022-08-22T21:47:19.122Z,20.30
2022-08-22T21:50:37.805Z,20.31
2022-08-22T21:53:40.207Z,20.30
2022-08-22T21:56:42.377Z,20.02
2022-08-22T21:59:51.474Z,20.03
2022-08-22T22:03:02.812Z,19.97
2022-08-22T22:06:06.617Z,19.97
2022-08-22T22:09:15.198Z,19.90
2022-08-22T22:12:18.317Z,19.96
2022-08-22T22:15:26.999Z,19.95
2022-08-22T22:18:34.403Z,19.92
2022-08-22T22:21:36.893Z,19.87
2022-08-22T22:24:39.468Z,19.94
2022-08-22T22:27:41.978Z,19.96
2022-08-22T22:30:50.324Z,19.89
2022-08-22T22:33:52.460Z,19.82
2022-08-22T22:36:55.170Z,19.91
2022-08-22T22:40:00.310Z,19.91
2022-08-22T22:43:10.300Z,19.95
2022-08-22T22:46:12.484Z,19.96
2022-08-22T22:49:14.911Z,19.95
2022-08-22T22:52:17.277Z,19.86
2022-08-22T22:55:24.923Z,19.63
2022-08-22T22:58:28.380Z,19.70
2022-08-22T23:01:31.029Z,19.79
2022-08-22T23:04:34.997Z,19.79
2022-08-22T23:07:38.521Z,19.82
2022-08-22T23:10:40.748Z,19.78
2022-08-22T23:13:43.374Z,19.90
2022-08-22T23:16:45.799Z,19.91
2022-08-22T23:19:50.144Z,19.80
2022-08-22T23:22:52.352Z,19.69
2022-08-22T23:25:54.736Z,19.65
2022-08-22T23:28:57.784Z,19.63
2022-08-22T23:32:02.423Z,19.60
2022-08-22T23:35:05.337Z,19.52
2022-08-22T23:38:07.787Z,19.54
2022-08-22T23:41:11.900Z,19.65
2022-08-22T23:44:17.359Z,19.71
2022-08-22T23:47:19.558Z,19.76
2022-08-22T23:50:21.982Z,19.74
2022-08-22T23:53:24.490Z,19.81
2022-08-22T23:56:34.140Z,19.86
2022-08-22T23:59:38.240Z,19.78
